Time;durP1;ratioP1;P1;durP2;ratioP2;P2;SDS_P1;SDS_P2;PMS_P1;PMS_P2;Temp;Humidity;BMP_temperature;BMP_pressure;BME280_temperature;BME280_humidity;BME280_pressure;Samples;Min_cycle;Max_cycle;Signal;HPM_P1;HPM_P2
2022/01/13 00:01:49;;;;;;;;;;;-0.60;99.90;;;;;;5026228;28;19932;-77
2022/01/13 00:04:16;;;;;;;;;;;-0.60;99.90;;;;;;5045665;28;20452;-77
2022/01/13 00:06:45;;;;;;;;;;;-0.70;99.90;;;;;;5024723;28;19925;-77
2022/01/13 00:09:12;;;;;;;;;;;-0.60;99.90;;;;;;5031279;28;19925;-78
2022/01/13 00:11:39;;;;;;;;;;;-0.70;99.90;;;;;;5028270;28;19929;-77
2022/01/13 00:14:26;;;;;;;;;;;-0.70;99.90;;;;;;5024373;28;19925;-77
2022/01/13 00:17:10;;;;;;;;;;;-0.80;99.90;;;;;;5042765;28;20311;-77
2022/01/13 00:19:49;;;;;;;;;;;-0.80;99.90;;;;;;5028040;28;19935;-77
2022/01/13 00:22:25;;;;;;;;;;;-0.80;99.90;;;;;;5040391;28;19925;-77
2022/01/13 00:24:56;;;;;;;;;;;-0.80;99.90;;;;;;5023623;28;20629;-77
2022/01/13 00:27:25;;;;;;;;;;;-0.90;99.90;;;;;;5027278;28;19972;-77
2022/01/13 00:29:55;;;;;;;;;;;-0.80;99.90;;;;;;5019597;28;19941;-77
2022/01/13 00:32:24;;;;;;;;;;;-0.80;99.90;;;;;;5028133;28;19932;-77
2022/01/13 00:34:51;;;;;;;;;;;-0.80;99.90;;;;;;5033811;28;19956;-77
2022/01/13 00:37:22;;;;;;;;;;;-0.80;99.90;;;;;;5063873;28;19970;-77
2022/01/13 00:39:49;;;;;;;;;;;-0.90;99.90;;;;;;5040784;28;19925;-77
2022/01/13 00:42:16;;;;;;;;;;;-0.80;99.90;;;;;;5047647;28;19933;-78
2022/01/13 00:44:44;;;;;;;;;;;-0.90;99.90;;;;;;5047207;28;19924;-77
2022/01/13 00:47:11;;;;;;;;;;;-0.90;99.90;;;;;;5050751;28;19932;-77
2022/01/13 00:49:38;;;;;;;;;;;-0.90;99.90;;;;;;5048158;28;19925;-78
2022/01/13 00:52:05;;;;;;;;;;;-0.90;99.90;;;;;;5051598;28;19935;-77
2022/01/13 00:54:34;;;;;;;;;;;-0.90;99.90;;;;;;5052063;28;19932;-78
2022/01/13 00:57:01;;;;;;;;;;;-1.00;99.90;;;;;;5051679;28;20016;-77
2022/01/13 00:59:28;;;;;;;;;;;-1.00;99.90;;;;;;5066710;28;19948;-77
2022/01/13 01:01:55;;;;;;;;;;;-1.00;99.90;;;;;;5060391;28;20028;-77
2022/01/13 01:04:23;;;;;;;;;;;-1.00;99.90;;;;;;5067348;28;19924;-77
2022/01/13 01:06:50;;;;;;;;;;;-1.00;99.90;;;;;;5046161;28;19925;-77
2022/01/13 01:09:23;;;;;;;;;;;-1.00;99.90;;;;;;5051010;28;20016;-77
2022/01/13 01:11:53;;;;;;;;;;;-1.00;99.90;;;;;;5067267;28;20051;-77
2022/01/13 01:14:20;;;;;;;;;;;-1.00;99.90;;;;;;5051012;28;20358;-77
2022/01/13 01:16:49;;;;;;;;;;;-1.00;99.90;;;;;;5051674;28;19931;-77
2022/01/13 01:19:25;;;;;;;;;;;-1.10;99.90;;;;;;5048631;28;19936;-77
2022/01/13 01:22:18;;;;;;;;;;;-1.10;99.90;;;;;;5042530;28;19932;-77
2022/01/13 01:27:34;;;;;;;;;;;-1.10;99.90;;;;;;5050343;28;20059;-77
2022/01/13 01:30:07;;;;;;;;;;;-1.10;99.90;;;;;;5042463;28;20394;-77
2022/01/13 01:32:37;;;;;;;;;;;-1.20;99.90;;;;;;5067865;28;19960;-77
2022/01/13 01:35:12;;;;;;;;;;;-1.20;99.90;;;;;;5047593;28;19925;-77
2022/01/13 01:37:39;;;;;;;;;;;-1.20;99.90;;;;;;5064448;28;19961;-77
2022/01/13 01:40:07;;;;;;;;;;;-1.20;99.90;;;;;;5071118;28;19929;-77
2022/01/13 01:42:35;;;;;;;;;;;-1.20;99.90;;;;;;5064605;28;19931;-77
2022/01/13 01:45:04;;;;;;;;;;;-1.20;99.90;;;;;;5050851;28;20014;-77
2022/01/13 01:47:31;;;;;;;;;;;-1.20;99.90;;;;;;5066096;28;19931;-77
2022/01/13 01:50:01;;;;;;;;;;;-1.20;99.90;;;;;;5058315;28;19936;-77
2022/01/13 01:52:28;;;;;;;;;;;-1.20;99.90;;;;;;5051997;28;19932;-77
2022/01/13 01:54:55;;;;;;;;;;;-1.30;99.90;;;;;;5066393;28;19924;-77
2022/01/13 01:57:23;;;;;;;;;;;-1.30;99.90;;;;;;5064594;28;20071;-77
2022/01/13 01:59:53;;;;;;;;;;;-1.30;99.90;;;;;;5064381;28;19959;-77
2022/01/13 02:02:21;;;;;;;;;;;-1.30;99.90;;;;;;5068653;28;19931;-77
2022/01/13 02:04:48;;;;;;;;;;;-1.30;99.90;;;;;;5060350;28;19928;-77
2022/01/13 02:07:15;;;;;;;;;;;-1.30;99.90;;;;;;5060784;28;19932;-77
2022/01/13 02:09:44;;;;;;;;;;;-1.30;99.90;;;;;;5065783;28;19924;-77
2022/01/13 02:12:15;;;;;;;;;;;-1.30;99.90;;;;;;5064879;28;19924;-77
2022/01/13 02:14:56;;;;;;;;;;;-1.30;99.90;;;;;;5068391;28;19928;-77
2022/01/13 02:17:28;;;;;;;;;;;-1.40;99.90;;;;;;5067399;28;19924;-77
2022/01/13 02:19:56;;;;;;;;;;;-1.40;99.90;;;;;;5066651;28;20000;-77
2022/01/13 02:22:25;;;;;;;;;;;-1.40;99.90;;;;;;5063790;28;19935;-77
2022/01/13 02:24:52;;;;;;;;;;;-1.40;99.90;;;;;;5066574;28;19983;-77
2022/01/13 02:27:19;;;;;;;;;;;-1.40;99.90;;;;;;5065903;28;19971;-77
2022/01/13 02:29:46;;;;;;;;;;;-1.40;99.90;;;;;;5045710;28;19928;-77
2022/01/13 02:32:13;;;;;;;;;;;-1.40;99.90;;;;;;5069385;28;20382;-77
2022/01/13 02:34:40;;;;;;;;;;;-1.40;99.90;;;;;;5071450;28;19931;-77
2022/01/13 02:37:07;;;;;;;;;;;-1.50;99.90;;;;;;5064578;28;19956;-77
2022/01/13 02:39:35;;;;;;;;;;;-1.40;99.90;;;;;;5069041;28;20019;-77
2022/01/13 02:42:03;;;;;;;;;;;-1.40;99.90;;;;;;5063949;28;20310;-77
2022/01/13 02:44:31;;;;;;;;;;;-1.40;99.90;;;;;;5051565;28;19931;-77
2022/01/13 02:47:11;;;;;;;;;;;-1.50;99.90;;;;;;5063906;28;20391;-77
2022/01/13 02:49:37;;;;;;;;;;;-1.50;99.90;;;;;;5067676;28;19963;-76
2022/01/13 02:52:05;;;;;;;;;;;-1.50;99.90;;;;;;5064549;28;19994;-77
2022/01/13 02:54:32;;;;;;;;;;;-1.50;99.90;;;;;;5063292;28;20059;-77
2022/01/13 02:57:00;;;;;;;;;;;-1.50;99.90;;;;;;5039627;28;20034;-76
2022/01/13 02:59:27;;;;;;;;;;;-1.50;99.90;;;;;;5062787;28;19940;-77
2022/01/13 03:01:54;;;;;;;;;;;-1.50;99.90;;;;;;5062693;28;19925;-77
2022/01/13 03:04:23;;;;;;;;;;;-1.50;99.90;;;;;;5062601;28;19928;-77
2022/01/13 03:06:50;;;;;;;;;;;-1.60;99.90;;;;;;5047860;28;19960;-77
2022/01/13 03:09:17;;;;;;;;;;;-1.60;99.90;;;;;;5057037;28;19931;-77
2022/01/13 03:11:45;;;;;;;;;;;-1.60;99.90;;;;;;5065277;28;19932;-77
2022/01/13 03:14:14;;;;;;;;;;;-1.60;99.90;;;;;;5061766;28;20395;-77
2022/01/13 03:16:41;;;;;;;;;;;-1.70;99.90;;;;;;5061911;28;19939;-76
2022/01/13 03:19:08;;;;;;;;;;;-1.70;99.90;;;;;;5065169;28;19979;-77
2022/01/13 03:21:35;;;;;;;;;;;-1.80;99.90;;;;;;5065645;28;19931;-77
2022/01/13 03:24:05;;;;;;;;;;;-1.80;99.90;;;;;;5064595;28;19931;-77
2022/01/13 03:26:32;;;;;;;;;;;-1.80;99.90;;;;;;5064506;28;19929;-77
2022/01/13 03:29:15;;;;;;;;;;;-1.80;99.90;;;;;;5068638;28;19925;-77
2022/01/13 03:31:43;;;;;;;;;;;-1.80;99.90;;;;;;5057397;28;20449;-77
2022/01/13 03:34:10;;;;;;;;;;;-1.80;99.90;;;;;;5064378;28;19960;-76
2022/01/13 03:36:37;;;;;;;;;;;-1.80;99.90;;;;;;5050660;28;19969;-77
2022/01/13 03:39:05;;;;;;;;;;;-1.80;99.90;;;;;;5064150;28;19940;-77
2022/01/13 03:41:33;;;;;;;;;;;-1.80;99.90;;;;;;5062126;28;20494;-77
2022/01/13 03:44:05;;;;;;;;;;;-1.80;99.90;;;;;;5049836;28;19928;-77
2022/01/13 03:46:33;;;;;;;;;;;-1.80;99.90;;;;;;5046814;28;19931;-77
2022/01/13 03:49:02;;;;;;;;;;;-1.90;99.90;;;;;;5066335;28;19931;-77
2022/01/13 03:51:49;;;;;;;;;;;-1.90;99.90;;;;;;5062678;28;19940;-77
2022/01/13 03:54:43;;;;;;;;;;;-1.90;99.90;;;;;;5064052;28;19928;-77
2022/01/13 03:57:36;;;;;;;;;;;-1.90;99.90;;;;;;5031583;28;19929;-77
2022/01/13 04:00:41;;;;;;;;;;;-1.90;99.90;;;;;;5063578;28;20016;-76
2022/01/13 04:03:08;;;;;;;;;;;-1.90;99.90;;;;;;5047739;28;19925;-77
2022/01/13 04:05:56;;;;;;;;;;;-1.90;99.90;;;;;;5064876;28;19955;-76
2022/01/13 04:08:23;;;;;;;;;;;-1.90;99.90;;;;;;5063418;28;20318;-76
2022/01/13 04:11:08;;;;;;;;;;;-1.90;99.90;;;;;;5058908;28;19970;-76
2022/01/13 04:13:47;;;;;;;;;;;-1.90;99.90;;;;;;5058110;28;19925;-77
2022/01/13 04:16:15;;;;;;;;;;;-1.90;99.90;;;;;;5045899;28;20956;-77
2022/01/13 04:18:42;;;;;;;;;;;-2.00;99.90;;;;;;5066956;28;20341;-77
2022/01/13 04:21:11;;;;;;;;;;;-2.00;99.90;;;;;;5066596;28;19924;-76
2022/01/13 04:23:38;;;;;;;;;;;-2.00;99.90;;;;;;5065525;28;19972;-77
2022/01/13 04:26:06;;;;;;;;;;;-2.00;99.90;;;;;;5064755;28;20318;-77
2022/01/13 04:28:34;;;;;;;;;;;-2.00;99.90;;;;;;5058642;28;19941;-77
2022/01/13 04:31:04;;;;;;;;;;;-2.00;99.90;;;;;;5062044;28;19928;-77
2022/01/13 04:33:31;;;;;;;;;;;-2.10;99.90;;;;;;5062750;28;20011;-77
2022/01/13 04:35:59;;;;;;;;;;;-2.10;99.90;;;;;;5059034;28;20022;-77
2022/01/13 04:38:27;;;;;;;;;;;-2.10;99.90;;;;;;5048340;28;19925;-76
2022/01/13 04:40:57;;;;;;;;;;;-2.10;99.90;;;;;;5060025;28;19940;-76
2022/01/13 04:43:24;;;;;;;;;;;-2.10;99.90;;;;;;5063145;28;19924;-77
2022/01/13 04:45:51;;;;;;;;;;;-2.10;99.90;;;;;;5065102;28;19930;-76
2022/01/13 04:48:19;;;;;;;;;;;-2.10;99.90;;;;;;5066418;28;19924;-76
2022/01/13 04:50:46;;;;;;;;;;;-2.10;99.90;;;;;;5060512;28;20681;-76
2022/01/13 04:53:13;;;;;;;;;;;-2.10;99.90;;;;;;5060139;28;19964;-76
2022/01/13 04:55:49;;;;;;;;;;;-2.10;99.90;;;;;;5065462;28;19924;-76
2022/01/13 04:58:16;;;;;;;;;;;-2.10;99.90;;;;;;5047316;28;19935;-77
2022/01/13 05:00:43;;;;;;;;;;;-2.10;99.90;;;;;;5064563;28;19925;-76
2022/01/13 05:03:10;;;;;;;;;;;-2.10;99.90;;;;;;5064729;28;19929;-76
2022/01/13 05:05:37;;;;;;;;;;;-2.20;99.90;;;;;;5089456;22;19977;-76
2022/01/13 05:08:05;;;;;;;;;;;-2.20;99.90;;;;;;5065620;28;19932;-75
2022/01/13 05:10:32;;;;;;;;;;;-2.20;99.90;;;;;;5070023;28;19924;-76
2022/01/13 05:13:00;;;;;;;;;;;-2.20;99.90;;;;;;5082692;28;19932;-76
2022/01/13 05:15:27;;;;;;;;;;;-2.20;99.90;;;;;;5082430;28;20030;-76
2022/01/13 05:20:38;;;;;;;;;;;-2.20;99.90;;;;;;5102536;28;20190;-76
2022/01/13 05:23:06;;;;;;;;;;;-2.20;99.90;;;;;;5097517;28;19924;-76
2022/01/13 05:25:33;;;;;;;;;;;-2.20;99.90;;;;;;5097639;28;19924;-76
2022/01/13 05:28:02;;;;;;;;;;;-2.20;99.90;;;;;;5105881;28;19927;-76
2022/01/13 05:30:29;;;;;;;;;;;-2.20;99.90;;;;;;5100680;28;19932;-75
2022/01/13 05:32:56;;;;;;;;;;;-2.20;99.90;;;;;;5089962;28;19967;-76
2022/01/13 05:35:24;;;;;;;;;;;-2.20;99.90;;;;;;5090220;28;19947;-76
2022/01/13 05:37:51;;;;;;;;;;;-2.30;99.90;;;;;;5108897;28;20022;-76
2022/01/13 05:40:18;;;;;;;;;;;-2.30;99.90;;;;;;5102733;28;20397;-76
2022/01/13 05:42:45;;;;;;;;;;;-2.30;99.90;;;;;;5109588;28;19932;-76
2022/01/13 05:45:16;;;;;;;;;;;-2.30;99.90;;;;;;5090372;28;19932;-76
2022/01/13 05:47:44;;;;;;;;;;;-2.30;99.90;;;;;;5089779;28;19927;-76
2022/01/13 05:50:12;;;;;;;;;;;-2.30;99.90;;;;;;5089180;28;19932;-76
2022/01/13 05:52:39;;;;;;;;;;;-2.30;99.90;;;;;;5101206;28;19924;-76
2022/01/13 05:55:07;;;;;;;;;;;-2.30;99.90;;;;;;5087480;28;19928;-77
2022/01/13 05:57:34;;;;;;;;;;;-2.30;99.90;;;;;;5097842;28;19924;-76
2022/01/13 06:00:01;;;;;;;;;;;-2.30;99.90;;;;;;5086396;28;19923;-77
2022/01/13 06:02:40;;;;;;;;;;;-2.30;99.90;;;;;;5100699;28;19931;-77
2022/01/13 06:05:07;;;;;;;;;;;-2.40;99.90;;;;;;5083945;28;19946;-77
2022/01/13 06:07:34;;;;;;;;;;;-2.40;99.90;;;;;;5103379;28;19923;-77
2022/01/13 06:10:01;;;;;;;;;;;-2.40;99.90;;;;;;5104076;28;19923;-76
2022/01/13 06:12:34;;;;;;;;;;;-2.30;99.90;;;;;;5098850;28;20018;-76
2022/01/13 06:15:02;;;;;;;;;;;-2.40;99.90;;;;;;5097161;28;19972;-76
2022/01/13 06:17:29;;;;;;;;;;;-2.40;99.90;;;;;;5082213;28;19923;-76
2022/01/13 06:19:59;;;;;;;;;;;-2.50;99.90;;;;;;5079167;28;19928;-76
2022/01/13 06:22:26;;;;;;;;;;;-2.50;99.90;;;;;;5103481;28;19934;-76
2022/01/13 06:24:53;;;;;;;;;;;-2.50;99.90;;;;;;5105006;28;20427;-76
2022/01/13 06:27:21;;;;;;;;;;;-2.50;99.90;;;;;;5105167;28;19977;-76
2022/01/13 06:29:48;;;;;;;;;;;-2.50;99.90;;;;;;5093562;28;19927;-76
2022/01/13 06:32:15;;;;;;;;;;;-2.50;99.90;;;;;;5096858;28;19928;-76
2022/01/13 06:34:42;;;;;;;;;;;-2.50;99.90;;;;;;5094052;28;20685;-76
2022/01/13 06:37:10;;;;;;;;;;;-2.50;99.90;;;;;;5094849;28;19924;-76
2022/01/13 06:39:37;;;;;;;;;;;-2.60;99.90;;;;;;5093438;28;19973;-76
2022/01/13 06:42:04;;;;;;;;;;;-2.60;99.90;;;;;;5101004;28;19928;-76
2022/01/13 06:44:32;;;;;;;;;;;-2.50;99.90;;;;;;5088670;28;19932;-76
2022/01/13 06:46:59;;;;;;;;;;;-2.60;99.90;;;;;;5096080;28;19931;-76
2022/01/13 06:49:26;;;;;;;;;;;-2.60;99.90;;;;;;5098268;28;19928;-76
2022/01/13 06:51:53;;;;;;;;;;;-2.60;99.90;;;;;;5083467;28;19949;-76
2022/01/13 06:54:21;;;;;;;;;;;-2.60;99.90;;;;;;5099910;27;19974;-77
2022/01/13 06:56:48;;;;;;;;;;;-2.60;99.90;;;;;;5101912;28;19950;-76
2022/01/13 06:59:15;;;;;;;;;;;-2.50;99.90;;;;;;5081039;28;20433;-76
2022/01/13 07:01:42;;;;;;;;;;;-2.60;99.90;;;;;;5093188;28;19924;-76
2022/01/13 07:04:11;;;;;;;;;;;-2.50;99.90;;;;;;5099748;28;19931;-76
2022/01/13 07:06:38;;;;;;;;;;;-2.50;99.90;;;;;;5103144;28;20305;-77
2022/01/13 07:09:07;;;;;;;;;;;-2.50;99.90;;;;;;5104849;28;19939;-76
2022/01/13 07:11:35;;;;;;;;;;;-2.50;99.90;;;;;;5081902;28;19951;-76
2022/01/13 07:14:02;;;;;;;;;;;-2.50;99.90;;;;;;5101926;28;19911;-76
2022/01/13 07:16:30;;;;;;;;;;;-2.50;99.90;;;;;;5099211;28;20365;-76
2022/01/13 07:18:57;;;;;;;;;;;-2.40;99.90;;;;;;5102876;28;19924;-76
2022/01/13 07:21:26;;;;;;;;;;;-2.40;99.90;;;;;;5096548;27;20038;-77
2022/01/13 07:23:53;;;;;;;;;;;-2.40;99.90;;;;;;5101222;28;19962;-76
2022/01/13 07:26:20;;;;;;;;;;;-2.40;99.90;;;;;;5097309;28;19924;-76
2022/01/13 07:28:49;;;;;;;;;;;-2.40;99.90;;;;;;5095736;28;19975;-77
2022/01/13 07:31:16;;;;;;;;;;;-2.40;99.90;;;;;;5091656;28;19935;-76
2022/01/13 07:33:43;;;;;;;;;;;-2.40;99.90;;;;;;5099565;28;19924;-77
2022/01/13 07:36:10;;;;;;;;;;;-2.40;99.90;;;;;;5097755;28;19923;-76
2022/01/13 07:38:37;;;;;;;;;;;-2.40;99.90;;;;;;5100773;28;19924;-76
2022/01/13 07:41:04;;;;;;;;;;;-2.40;99.90;;;;;;5083634;28;19928;-76
2022/01/13 07:43:32;;;;;;;;;;;-2.40;99.90;;;;;;5090785;28;19931;-76
2022/01/13 07:46:00;;;;;;;;;;;-2.40;99.90;;;;;;5083508;28;19928;-76
2022/01/13 07:48:27;;;;;;;;;;;-2.40;99.90;;;;;;5101059;28;19932;-76
2022/01/13 07:50:54;;;;;;;;;;;-2.40;99.90;;;;;;5100388;28;20394;-76
2022/01/13 07:53:22;;;;;;;;;;;-2.40;99.90;;;;;;5100419;28;19924;-77
2022/01/13 07:55:49;;;;;;;;;;;-2.30;99.90;;;;;;5103362;28;19977;-76
2022/01/13 07:58:16;;;;;;;;;;;-2.30;99.90;;;;;;5097770;28;20006;-76
2022/01/13 08:00:43;;;;;;;;;;;-2.30;99.90;;;;;;5084850;28;20030;-76
2022/01/13 08:03:11;;;;;;;;;;;-2.30;99.90;;;;;;5088118;28;20367;-76
2022/01/13 08:05:38;;;;;;;;;;;-2.30;99.90;;;;;;5100976;28;19912;-76
2022/01/13 08:08:06;;;;;;;;;;;-2.30;99.90;;;;;;5087289;28;20757;-76
2022/01/13 08:10:33;;;;;;;;;;;-2.30;99.90;;;;;;5095497;28;19923;-77
2022/01/13 08:13:00;;;;;;;;;;;-2.30;99.90;;;;;;5097741;28;19970;-76
2022/01/13 08:15:28;;;;;;;;;;;-2.30;99.90;;;;;;5096872;28;19924;-76
2022/01/13 08:20:40;;;;;;;;;;;-2.30;99.90;;;;;;5093245;28;19946;-76
2022/01/13 08:23:09;;;;;;;;;;;-2.30;99.90;;;;;;5095663;28;19932;-76
2022/01/13 08:25:36;;;;;;;;;;;-2.30;99.90;;;;;;5087972;28;21314;-76
2022/01/13 08:28:04;;;;;;;;;;;-2.30;99.90;;;;;;5100635;28;19924;-76
2022/01/13 08:30:31;;;;;;;;;;;-2.30;99.90;;;;;;5092927;28;19924;-76
2022/01/13 08:32:58;;;;;;;;;;;-2.20;99.90;;;;;;5084324;28;20030;-76
2022/01/13 08:35:25;;;;;;;;;;;-2.20;99.90;;;;;;5085381;28;19934;-76
2022/01/13 08:37:53;;;;;;;;;;;-2.20;99.90;;;;;;5083538;28;19931;-76
2022/01/13 08:40:21;;;;;;;;;;;-2.20;99.90;;;;;;5105558;28;20296;-76
2022/01/13 08:42:47;;;;;;;;;;;-2.20;99.90;;;;;;5097921;28;19928;-76
2022/01/13 08:45:15;;;;;;;;;;;-2.20;99.90;;;;;;5101713;28;19930;-76
2022/01/13 08:47:44;;;;;;;;;;;-2.10;99.90;;;;;;5097195;28;20354;-77
2022/01/13 08:50:11;;;;;;;;;;;-2.20;99.90;;;;;;5098177;28;19939;-77
2022/01/13 08:52:39;;;;;;;;;;;-2.10;99.90;;;;;;5096618;28;19928;-77
2022/01/13 08:55:08;;;;;;;;;;;-2.10;99.90;;;;;;5105342;28;19931;-76
2022/01/13 08:57:35;;;;;;;;;;;-2.10;99.90;;;;;;5103081;28;19954;-76
2022/01/13 09:00:03;;;;;;;;;;;-2.10;99.90;;;;;;5084601;28;19931;-77
2022/01/13 09:02:33;;;;;;;;;;;-2.10;99.90;;;;;;5096150;28;20465;-76
2022/01/13 09:05:00;;;;;;;;;;;-2.00;99.90;;;;;;5087290;28;19923;-76
2022/01/13 09:07:27;;;;;;;;;;;-2.00;99.90;;;;;;5100394;28;19954;-77
2022/01/13 09:09:54;;;;;;;;;;;-2.00;99.90;;;;;;5086925;28;19977;-77
2022/01/13 09:12:23;;;;;;;;;;;-2.00;99.90;;;;;;5081573;28;20386;-76
2022/01/13 09:14:57;;;;;;;;;;;-2.00;99.90;;;;;;5103180;28;19964;-77
2022/01/13 09:17:24;;;;;;;;;;;-2.00;99.90;;;;;;5099448;28;19940;-77
2022/01/13 09:19:52;;;;;;;;;;;-2.00;99.90;;;;;;5104480;28;20462;-77
2022/01/13 09:22:19;;;;;;;;;;;-2.00;99.90;;;;;;5096838;27;19955;-76
2022/01/13 09:24:46;;;;;;;;;;;-1.90;99.90;;;;;;5103778;28;20368;-76
2022/01/13 09:27:13;;;;;;;;;;;-1.90;99.90;;;;;;5102679;28;19930;-76
2022/01/13 09:29:42;;;;;;;;;;;-1.90;99.90;;;;;;5098683;28;19943;-77
2022/01/13 09:32:09;;;;;;;;;;;-1.90;99.90;;;;;;5105259;28;19928;-76
2022/01/13 09:34:37;;;;;;;;;;;-1.90;99.90;;;;;;5087996;28;19928;-76
2022/01/13 09:37:04;;;;;;;;;;;-1.90;99.90;;;;;;5102734;28;19923;-76
2022/01/13 09:39:33;;;;;;;;;;;-1.90;99.90;;;;;;5083214;28;19923;-77
2022/01/13 09:42:00;;;;;;;;;;;-1.80;99.90;;;;;;5102309;28;19993;-76
2022/01/13 09:44:28;;;;;;;;;;;-1.80;99.90;;;;;;5105713;28;19936;-76
2022/01/13 09:46:57;;;;;;;;;;;-1.80;99.90;;;;;;5084716;28;19969;-76
2022/01/13 09:49:25;;;;;;;;;;;-1.80;99.90;;;;;;5101540;28;19931;-76
2022/01/13 09:51:52;;;;;;;;;;;-1.80;99.90;;;;;;5104079;28;19931;-76
2022/01/13 09:54:20;;;;;;;;;;;-1.70;99.90;;;;;;5099965;28;19924;-76
2022/01/13 09:56:47;;;;;;;;;;;-1.70;99.90;;;;;;5103083;28;20312;-76
2022/01/13 09:59:15;;;;;;;;;;;-1.70;99.90;;;;;;5084501;28;19914;-77
2022/01/13 10:01:42;;;;;;;;;;;-1.70;99.90;;;;;;5101049;28;19957;-76
2022/01/13 10:04:10;;;;;;;;;;;-1.70;99.90;;;;;;5107505;28;20344;-77
2022/01/13 10:06:41;;;;;;;;;;;-1.70;99.90;;;;;;5096883;28;19980;-77
2022/01/13 10:09:08;;;;;;;;;;;-1.60;99.90;;;;;;5083401;28;19947;-77
2022/01/13 10:11:39;;;;;;;;;;;-1.60;99.90;;;;;;5104270;28;19924;-76
2022/01/13 10:14:10;;;;;;;;;;;-1.60;99.90;;;;;;5082248;28;19947;-76
2022/01/13 10:16:42;;;;;;;;;;;-1.60;99.90;;;;;;5104558;28;19932;-77
2022/01/13 10:19:25;;;;;;;;;;;-1.60;99.90;;;;;;5097576;28;20007;-77
2022/01/13 10:21:57;;;;;;;;;;;-1.60;99.90;;;;;;5086930;28;20022;-77
2022/01/13 10:24:25;;;;;;;;;;;-1.50;99.90;;;;;;5104821;28;19930;-77
2022/01/13 10:26:58;;;;;;;;;;;-1.60;99.90;;;;;;5084685;28;19988;-76
2022/01/13 10:29:36;;;;;;;;;;;-1.60;99.90;;;;;;5106148;28;19924;-77
2022/01/13 10:32:03;;;;;;;;;;;-1.50;99.90;;;;;;5095594;28;20019;-76
2022/01/13 10:34:32;;;;;;;;;;;-1.50;99.90;;;;;;5098523;28;19924;-77
2022/01/13 10:37:00;;;;;;;;;;;-1.40;99.90;;;;;;5082886;28;19943;-76
2022/01/13 10:39:42;;;;;;;;;;;-1.50;99.90;;;;;;5101178;28;19932;-76
2022/01/13 10:42:21;;;;;;;;;;;-1.40;99.90;;;;;;5097773;28;19924;-77
2022/01/13 10:44:53;;;;;;;;;;;-1.40;99.90;;;;;;5082810;28;19959;-76
2022/01/13 10:47:21;;;;;;;;;;;-1.40;99.90;;;;;;5100798;28;19924;-77
2022/01/13 10:49:50;;;;;;;;;;;-1.40;99.90;;;;;;5089839;28;19984;-77
2022/01/13 10:52:26;;;;;;;;;;;-1.40;99.90;;;;;;5102854;28;19931;-76
2022/01/13 10:54:53;;;;;;;;;;;-1.40;99.90;;;;;;5103310;28;20182;-76
2022/01/13 10:57:21;;;;;;;;;;;-1.30;99.90;;;;;;5100807;28;20026;-76
2022/01/13 10:59:48;;;;;;;;;;;-1.30;99.90;;;;;;5078043;28;20320;-76
2022/01/13 11:02:15;;;;;;;;;;;-1.30;99.90;;;;;;5095811;28;20313;-77
2022/01/13 11:04:42;;;;;;;;;;;-1.30;99.90;;;;;;5082736;28;20368;-76
2022/01/13 11:07:17;;;;;;;;;;;-1.30;99.90;;;;;;5099414;28;19923;-77
2022/01/13 11:09:52;;;;;;;;;;;-1.30;99.90;;;;;;5086521;28;19942;-77
2022/01/13 11:12:27;;;;;;;;;;;-1.30;99.90;;;;;;5099402;28;19932;-76
2022/01/13 11:14:59;;;;;;;;;;;-1.20;99.90;;;;;;5098023;28;20010;-77
2022/01/13 11:17:27;;;;;;;;;;;-1.20;99.90;;;;;;5085159;28;19932;-76
2022/01/13 11:19:54;;;;;;;;;;;-1.20;99.90;;;;;;5099857;28;19924;-77
2022/01/13 11:22:23;;;;;;;;;;;-1.20;99.90;;;;;;5075608;28;19931;-76
2022/01/13 11:24:50;;;;;;;;;;;-1.20;99.90;;;;;;5095607;28;19936;-77
2022/01/13 11:27:18;;;;;;;;;;;-1.20;99.90;;;;;;5082664;28;19928;-76
2022/01/13 11:29:45;;;;;;;;;;;-1.20;99.90;;;;;;5078609;28;20686;-77
2022/01/13 11:32:14;;;;;;;;;;;-1.20;99.90;;;;;;5101829;28;19930;-77
2022/01/13 11:34:41;;;;;;;;;;;-1.20;99.90;;;;;;5174426;22;20447;-74
2022/01/13 11:37:09;;;;;;;;;;;-1.10;99.90;;;;;;5112020;27;19927;-73
2022/01/13 11:39:39;;;;;;;;;;;-1.10;99.90;;;;;;5138696;27;19923;-74
2022/01/13 11:42:06;;;;;;;;;;;-1.10;99.90;;;;;;5119142;27;19938;-74
2022/01/13 11:44:34;;;;;;;;;;;-1.10;99.90;;;;;;5114603;27;19931;-74
2022/01/13 11:47:01;;;;;;;;;;;-1.10;99.90;;;;;;5121478;27;19923;-74
2022/01/13 11:49:40;;;;;;;;;;;-1.10;99.90;;;;;;5121598;27;20469;-74
2022/01/13 11:52:14;;;;;;;;;;;-1.10;99.90;;;;;;5120555;27;19928;-74
2022/01/13 11:54:43;;;;;;;;;;;-1.10;99.90;;;;;;5118670;27;19935;-74
2022/01/13 11:57:18;;;;;;;;;;;-1.00;99.90;;;;;;5120148;27;19923;-74
2022/01/13 12:00:00;;;;;;;;;;;-1.00;99.90;;;;;;5122137;27;19931;-74
2022/01/13 12:02:28;;;;;;;;;;;-1.00;99.90;;;;;;5111344;27;19938;-74
2022/01/13 12:05:02;;;;;;;;;;;-1.00;99.90;;;;;;5119612;27;19976;-74
2022/01/13 12:07:35;;;;;;;;;;;-1.00;99.90;;;;;;5122965;27;19927;-74
2022/01/13 12:10:04;;;;;;;;;;;-1.00;99.90;;;;;;5120472;28;19923;-74
2022/01/13 12:12:31;;;;;;;;;;;-0.90;99.90;;;;;;5130890;27;19928;-74
2022/01/13 12:15:13;;;;;;;;;;;-0.90;99.90;;;;;;5121153;27;19931;-74
2022/01/13 12:17:45;;;;;;;;;;;-1.00;99.90;;;;;;5124193;27;19932;-74
2022/01/13 12:20:21;;;;;;;;;;;-0.90;99.90;;;;;;5123225;28;19924;-74
2022/01/13 12:22:57;;;;;;;;;;;-0.90;99.90;;;;;;5120340;27;20021;-74
2022/01/13 12:25:31;;;;;;;;;;;-0.90;99.90;;;;;;5120395;27;19927;-74
2022/01/13 12:27:58;;;;;;;;;;;-0.90;99.90;;;;;;5116254;27;19934;-74
2022/01/13 12:30:27;;;;;;;;;;;-0.90;99.90;;;;;;5126045;27;20389;-74
2022/01/13 12:32:54;;;;;;;;;;;-0.90;99.90;;;;;;5125360;27;19946;-74
2022/01/13 12:35:32;;;;;;;;;;;-0.90;99.90;;;;;;5128678;27;19923;-74
2022/01/13 12:38:01;;;;;;;;;;;-0.80;99.90;;;;;;5117321;27;20348;-74
2022/01/13 12:40:33;;;;;;;;;;;-0.80;99.90;;;;;;5120860;27;19970;-74
2022/01/13 12:43:13;;;;;;;;;;;-0.80;99.90;;;;;;5123201;27;19931;-74
2022/01/13 12:45:39;;;;;;;;;;;-0.80;99.90;;;;;;5121933;27;19984;-74
2022/01/13 12:48:08;;;;;;;;;;;-0.80;99.90;;;;;;5119224;27;19977;-74
2022/01/13 12:50:36;;;;;;;;;;;-0.80;99.90;;;;;;5123510;27;21755;-74
2022/01/13 12:53:08;;;;;;;;;;;-0.80;99.90;;;;;;5122308;27;19928;-74
2022/01/13 12:55:37;;;;;;;;;;;-0.80;99.90;;;;;;5128556;27;19923;-75
2022/01/13 12:58:04;;;;;;;;;;;-0.80;99.90;;;;;;5128272;27;20389;-74
2022/01/13 13:00:31;;;;;;;;;;;-0.70;99.90;;;;;;5126557;27;19932;-74
2022/01/13 13:03:05;;;;;;;;;;;-0.70;99.90;;;;;;5123066;27;19934;-74
2022/01/13 13:05:34;;;;;;;;;;;-0.70;99.90;;;;;;5126880;27;19932;-76
2022/01/13 13:08:01;;;;;;;;;;;-0.70;99.90;;;;;;5127883;27;20312;-74
2022/01/13 13:10:29;;;;;;;;;;;-0.70;99.90;;;;;;5119953;27;19977;-75
2022/01/13 13:12:58;;;;;;;;;;;-0.70;99.90;;;;;;5130601;27;20030;-74
2022/01/13 13:15:41;;;;;;;;;;;-0.70;99.90;;;;;;5128458;27;19970;-74
2022/01/13 13:18:08;;;;;;;;;;;-0.60;99.90;;;;;;5136833;27;19935;-74
2022/01/13 13:20:36;;;;;;;;;;;-0.60;99.90;;;;;;5128479;27;19976;-74
2022/01/13 13:23:06;;;;;;;;;;;-0.60;99.90;;;;;;5122428;27;19923;-74
2022/01/13 13:25:34;;;;;;;;;;;-0.60;99.90;;;;;;5121323;27;19930;-75
2022/01/13 13:28:19;;;;;;;;;;;-0.60;99.90;;;;;;5122941;27;20011;-74
2022/01/13 13:30:47;;;;;;;;;;;-0.60;99.90;;;;;;5119232;27;20373;-74
2022/01/13 13:33:14;;;;;;;;;;;-0.60;99.90;;;;;;5120236;27;19927;-74
2022/01/13 13:35:41;;;;;;;;;;;-0.50;99.90;;;;;;5120787;27;19940;-74
2022/01/13 13:38:11;;;;;;;;;;;-0.50;99.90;;;;;;5126616;27;19924;-74
2022/01/13 13:40:42;;;;;;;;;;;-0.50;99.90;;;;;;5120924;27;20457;-74
2022/01/13 13:43:09;;;;;;;;;;;-0.50;99.90;;;;;;5119783;27;19986;-73
2022/01/13 13:45:38;;;;;;;;;;;-0.50;99.90;;;;;;5130633;27;20312;-74
2022/01/13 13:48:05;;;;;;;;;;;-0.40;99.90;;;;;;5125545;27;19935;-74
2022/01/13 13:50:32;;;;;;;;;;;-0.40;99.90;;;;;;5123897;27;19977;-73
2022/01/13 13:53:06;;;;;;;;;;;-0.40;99.90;;;;;;5122586;27;19928;-73
2022/01/13 13:55:34;;;;;;;;;;;-0.40;99.90;;;;;;5127571;27;19929;-73
2022/01/13 13:58:01;;;;;;;;;;;-0.40;99.90;;;;;;5124291;27;20510;-73
2022/01/13 14:00:28;;;;;;;;;;;-0.40;99.90;;;;;;5124195;27;20435;-73
2022/01/13 14:02:58;;;;;;;;;;;-0.30;99.90;;;;;;5121635;27;19924;-73
2022/01/13 14:05:37;;;;;;;;;;;-0.30;99.90;;;;;;5120222;27;19923;-73
2022/01/13 14:08:08;;;;;;;;;;;-0.30;99.90;;;;;;5121468;27;20408;-73
2022/01/13 14:10:35;;;;;;;;;;;-0.30;99.90;;;;;;5128680;27;20441;-73
2022/01/13 14:13:04;;;;;;;;;;;-0.30;99.90;;;;;;5121671;27;20003;-73
2022/01/13 14:15:32;;;;;;;;;;;-0.20;99.90;;;;;;5124167;27;19923;-73
2022/01/13 14:18:12;;;;;;;;;;;-0.20;99.90;;;;;;5122367;27;19928;-73
2022/01/13 14:20:40;;;;;;;;;;;-0.20;99.90;;;;;;5128449;27;20347;-73
2022/01/13 14:23:07;;;;;;;;;;;-0.20;99.90;;;;;;5121868;27;20396;-73
2022/01/13 14:25:35;;;;;;;;;;;-0.10;99.90;;;;;;5118161;27;19946;-73
2022/01/13 14:28:04;;;;;;;;;;;-0.10;99.90;;;;;;5121515;27;19930;-73
2022/01/13 14:30:32;;;;;;;;;;;-0.10;99.90;;;;;;5119986;27;20018;-73
2022/01/13 14:33:13;;;;;;;;;;;-0.10;99.90;;;;;;5117933;27;19924;-73
2022/01/13 14:35:40;;;;;;;;;;;-0.10;99.90;;;;;;5119288;27;19938;-73
2022/01/13 14:38:09;;;;;;;;;;;-0.10;99.90;;;;;;5118076;27;19949;-73